createdAt,value
2023-02-06T00:00:49.586Z,70.44
2023-02-06T00:01:51.387Z,71.11
2023-02-06T00:02:52.993Z,70.89
2023-02-06T00:03:54.673Z,70.97
2023-02-06T00:04:56.312Z,71.37
2023-02-06T00:05:58.892Z,70.28
2023-02-06T00:07:00.512Z,71.25
2023-02-06T00:08:02.678Z,71.08
2023-02-06T00:09:04.593Z,71.37
2023-02-06T00:10:06.532Z,71.16
2023-02-06T00:11:10.842Z,70.84
2023-02-06T00:12:13.980Z,70.86
2023-02-06T00:13:15.582Z,70.70
2023-02-06T00:14:17.214Z,70.71
2023-02-06T00:15:18.983Z,70.40
2023-02-06T00:16:21.522Z,70.35
2023-02-06T00:17:23.471Z,70.30
2023-02-06T00:18:25.394Z,70.01
2023-02-06T00:19:27.044Z,70.53
2023-02-06T00:20:28.693Z,70.89
2023-02-06T00:21:30.506Z,70.95
2023-02-06T00:22:32.143Z,70.69
2023-02-06T00:23:33.734Z,71.28
2023-02-06T00:24:35.386Z,71.62
2023-02-06T00:25:37.353Z,71.62
2023-02-06T00:26:39.177Z,71.21
2023-02-06T00:27:41.067Z,71.06
2023-02-06T00:28:42.677Z,70.62
2023-02-06T00:29:44.272Z,70.78
2023-02-06T00:30:47.267Z,70.93
2023-02-06T00:31:49.054Z,71.06
2023-02-06T00:32:50.755Z,71.08
2023-02-06T00:33:52.391Z,70.93
2023-02-06T00:34:54.003Z,70.89
2023-02-06T00:35:55.596Z,71.26
2023-02-06T00:36:57.236Z,70.91
2023-02-06T00:38:00.232Z,70.98
2023-02-06T00:39:01.925Z,71.23
2023-02-06T00:40:03.620Z,71.44
2023-02-06T00:41:05.522Z,71.86
2023-02-06T00:42:07.257Z,71.74
2023-02-06T00:43:08.845Z,71.94
2023-02-06T00:44:10.476Z,72.16
2023-02-06T00:45:12.065Z,72.20
2023-02-06T00:46:13.730Z,72.29
2023-02-06T00:47:15.386Z,72.57
2023-02-06T00:48:17.056Z,71.84
2023-02-06T00:49:18.717Z,71.97
2023-02-06T00:50:20.383Z,71.90
2023-02-06T00:51:22.172Z,71.87
2023-02-06T00:52:23.780Z,72.48
2023-02-06T00:53:25.510Z,72.75
2023-02-06T00:54:27.229Z,72.52
2023-02-06T00:55:28.883Z,72.16
2023-02-06T00:56:30.474Z,71.94
2023-02-06T00:57:32.080Z,71.99
2023-02-06T00:58:33.757Z,72.17
2023-02-06T00:59:35.326Z,72.30
2023-02-06T01:00:36.935Z,72.59
2023-02-06T01:01:38.517Z,72.74
2023-02-06T01:02:40.273Z,73.48
2023-02-06T01:03:42.018Z,73.27
2023-02-06T01:04:43.633Z,73.26
2023-02-06T01:05:45.233Z,73.34
2023-02-06T01:06:46.822Z,73.60
2023-02-06T01:07:48.436Z,73.65
2023-02-06T01:08:50.715Z,73.74
2023-02-06T01:09:52.289Z,73.75
2023-02-06T01:10:53.964Z,73.60
2023-02-06T01:11:56.334Z,73.81
2023-02-06T01:12:58.007Z,73.77
2023-02-06T01:14:00.731Z,73.59
2023-02-06T01:15:04.226Z,73.41
2023-02-06T01:16:09.994Z,73.52
2023-02-06T01:17:11.984Z,73.61
2023-02-06T01:18:13.599Z,73.63
2023-02-06T01:19:15.227Z,73.76
2023-02-06T01:20:16.913Z,73.72
2023-02-06T01:21:22.832Z,73.45
2023-02-06T01:22:24.543Z,73.04
2023-02-06T01:23:26.168Z,72.93
2023-02-06T01:24:27.784Z,72.74
2023-02-06T01:25:29.371Z,72.82
2023-02-06T01:26:31.004Z,73.23
2023-02-06T01:27:32.798Z,73.14
2023-02-06T01:28:38.239Z,73.54
2023-02-06T01:29:39.834Z,73.83
2023-02-06T01:30:41.436Z,73.92
2023-02-06T01:31:43.071Z,73.72
2023-02-06T01:32:44.949Z,73.77
2023-02-06T01:33:47.000Z,73.88
2023-02-06T01:34:48.604Z,73.72
2023-02-06T01:35:56.930Z,73.70
2023-02-06T01:36:58.512Z,73.81
2023-02-06T01:38:00.139Z,73.80
2023-02-06T01:39:01.738Z,73.87
2023-02-06T01:40:04.771Z,74.01
2023-02-06T01:41:07.381Z,74.18
2023-02-06T01:42:11.291Z,73.93
2023-02-06T01:43:17.864Z,73.84
2023-02-06T01:44:23.600Z,74.22
2023-02-06T01:45:41.998Z,74.37
2023-02-06T01:46:45.811Z,74.37
2023-02-06T01:47:48.934Z,74.41
2023-02-06T01:48:52.110Z,74.66
2023-02-06T01:49:53.728Z,74.60
2023-02-06T01:50:55.592Z,74.85
2023-02-06T01:52:01.192Z,74.89
2023-02-06T01:53:02.837Z,75.00
2023-02-06T01:54:05.342Z,74.95
2023-02-06T01:55:07.059Z,75.05
2023-02-06T01:56:08.665Z,75.23
2023-02-06T01:57:10.965Z,75.41
2023-02-06T01:58:16.015Z,75.37
2023-02-06T01:59:17.707Z,75.20
2023-02-06T02:00:19.970Z,75.27
2023-02-06T02:01:21.603Z,75.02
2023-02-06T02:02:23.316Z,75.03
2023-02-06T02:03:25.089Z,75.13
2023-02-06T02:04:27.144Z,75.07
2023-02-06T02:05:28.742Z,75.06
2023-02-06T02:06:30.333Z,75.24
2023-02-06T02:08:01.114Z,75.10
2023-02-06T02:09:03.426Z,75.40
2023-02-06T02:10:05.450Z,75.40
2023-02-06T02:11:08.106Z,75.32
2023-02-06T02:12:09.760Z,75.51
2023-02-06T02:13:11.361Z,75.35
2023-02-06T02:14:13.495Z,75.29
2023-02-06T02:15:15.124Z,75.17
2023-02-06T02:16:19.438Z,75.62
2023-02-06T02:17:37.344Z,75.92
2023-02-06T02:18:39.037Z,75.72
2023-02-06T02:20:01.794Z,75.61
2023-02-06T02:21:15.098Z,75.86
2023-02-06T02:22:18.358Z,76.04
2023-02-06T02:23:34.694Z,76.05
2023-02-06T02:24:57.802Z,75.99
2023-02-06T02:26:05.500Z,76.03
2023-02-06T02:27:25.234Z,76.00
2023-02-06T02:28:47.874Z,76.16
2023-02-06T02:30:33.309Z,76.19
2023-02-06T02:31:34.979Z,76.46
2023-02-06T02:32:45.278Z,76.56
2023-02-06T02:34:01.177Z,76.88
2023-02-06T02:35:30.335Z,76.89
2023-02-06T02:36:34.646Z,76.92
2023-02-06T02:38:24.423Z,76.96
2023-02-06T02:39:34.993Z,76.79
2023-02-06T02:40:51.731Z,76.69
2023-02-06T02:41:56.358Z,76.54
2023-02-06T02:43:18.337Z,76.99
2023-02-06T02:44:26.962Z,77.19
2023-02-06T02:45:49.618Z,77.11
2023-02-06T02:46:52.249Z,76.78
2023-02-06T02:47:57.739Z,76.66
2023-02-06T02:49:08.664Z,76.55
2023-02-06T02:50:10.324Z,76.69
2023-02-06T02:51:11.935Z,76.44
2023-02-06T02:52:13.793Z,76.41
2023-02-06T02:53:15.487Z,76.51
2023-02-06T02:54:17.178Z,76.56
2023-02-06T02:55:22.435Z,76.43
2023-02-06T02:56:24.692Z,76.19
2023-02-06T02:57:28.929Z,76.15
2023-02-06T02:58:32.860Z,76.32
2023-02-06T02:59:39.414Z,75.98
2023-02-06T03:00:47.504Z,75.93
2023-02-06T03:02:00.220Z,76.03
2023-02-06T03:03:01.867Z,76.01
2023-02-06T03:04:14.518Z,76.00
2023-02-06T03:05:20.208Z,75.94
2023-02-06T03:06:54.184Z,76.31
2023-02-06T03:08:15.722Z,75.87
2023-02-06T03:09:23.230Z,75.58
2023-02-06T03:10:35.296Z,75.20
2023-02-06T03:11:39.458Z,75.31
2023-02-06T03:12:57.305Z,75.80
2023-02-06T03:14:03.534Z,75.54
2023-02-06T03:15:23.748Z,75.53
2023-02-06T03:16:52.552Z,75.59
2023-02-06T03:17:56.232Z,75.87
2023-02-06T03:19:08.755Z,75.28
2023-02-06T03:20:10.557Z,75.34
2023-02-06T03:21:14.997Z,75.56
2023-02-06T03:22:16.586Z,74.90
2023-02-06T03:23:21.181Z,74.38
2023-02-06T03:24:27.012Z,73.79
2023-02-06T03:25:35.798Z,73.74
2023-02-06T03:26:37.562Z,75.13
2023-02-06T03:27:40.068Z,74.57
2023-02-06T03:28:47.443Z,75.37
2023-02-06T03:29:49.417Z,75.62
2023-02-06T03:30:52.348Z,76.52
2023-02-06T03:31:56.440Z,76.61
2023-02-06T03:33:01.864Z,76.90
2023-02-06T03:34:25.910Z,77.27
2023-02-06T03:35:30.766Z,77.77
2023-02-06T03:36:32.439Z,77.49
2023-02-06T03:37:34.529Z,77.42
2023-02-06T03:38:36.153Z,77.52
2023-02-06T03:39:37.745Z,77.22
2023-02-06T03:40:39.914Z,77.10
2023-02-06T03:41:41.577Z,77.07
2023-02-06T03:42:45.817Z,76.95
2023-02-06T03:43:47.445Z,76.87
2023-02-06T03:44:51.923Z,76.70
2023-02-06T03:45:56.551Z,76.93
2023-02-06T03:46:58.651Z,76.80
2023-02-06T03:48:03.915Z,76.80
2023-02-06T03:49:07.418Z,76.86
2023-02-06T03:50:09.198Z,76.95
2023-02-06T03:51:22.072Z,76.70
2023-02-06T03:52:25.476Z,76.68
2023-02-06T03:53:27.110Z,76.70
2023-02-06T03:54:29.073Z,76.84
2023-02-06T03:55:30.745Z,76.77
2023-02-06T03:56:40.049Z,76.74
2023-02-06T03:57:42.312Z,76.74
2023-02-06T03:58:43.926Z,76.48
2023-02-06T03:59:46.397Z,76.53
2023-02-06T04:00:48.068Z,76.61
2023-02-06T04:01:52.392Z,76.54
2023-02-06T04:02:54.005Z,76.59
2023-02-06T04:03:55.646Z,76.75
2023-02-06T04:04:57.260Z,76.83
2023-02-06T04:05:58.980Z,77.12
2023-02-06T04:07:02.791Z,77.37
2023-02-06T04:08:04.790Z,77.69
2023-02-06T04:09:06.459Z,77.81
2023-02-06T04:10:08.297Z,77.73
2023-02-06T04:11:09.928Z,77.66
2023-02-06T04:12:11.684Z,77.97
2023-02-06T04:13:13.504Z,77.75
2023-02-06T04:14:15.093Z,77.73
2023-02-06T04:15:16.911Z,78.28
2023-02-06T04:16:18.560Z,78.63
2023-02-06T04:17:38.553Z,79.08
2023-02-06T04:18:41.995Z,79.87
2023-02-06T04:19:43.648Z,80.17
2023-02-06T04:20:45.252Z,79.94
2023-02-06T04:21:46.867Z,80.08
2023-02-06T04:22:48.562Z,80.19
2023-02-06T04:23:50.238Z,79.98
2023-02-06T04:24:51.835Z,79.86
2023-02-06T04:25:53.479Z,79.59
2023-02-06T04:26:55.097Z,79.71
2023-02-06T04:27:56.778Z,79.62
2023-02-06T04:28:58.397Z,79.47
2023-02-06T04:30:00.164Z,79.42
2023-02-06T04:31:01.899Z,79.33
2023-02-06T04:32:04.961Z,78.79
2023-02-06T04:33:06.555Z,78.84
2023-02-06T04:34:08.223Z,78.58
2023-02-06T04:35:09.924Z,78.51
2023-02-06T04:36:11.639Z,78.91
2023-02-06T04:37:13.234Z,78.47
2023-02-06T04:38:14.957Z,78.26
2023-02-06T04:39:16.592Z,78.23
2023-02-06T04:40:18.264Z,78.01
2023-02-06T04:41:20.016Z,78.05
2023-02-06T04:42:21.621Z,78.03
2023-02-06T04:43:23.219Z,77.90
2023-02-06T04:44:24.842Z,77.89
2023-02-06T04:45:26.509Z,77.87
2023-02-06T04:46:28.316Z,77.97
2023-02-06T04:47:30.112Z,77.75
2023-02-06T04:48:31.717Z,77.72
2023-02-06T04:49:33.338Z,77.58
2023-02-06T04:50:34.920Z,77.65
2023-02-06T04:51:36.672Z,77.42
2023-02-06T04:52:38.379Z,77.32
2023-02-06T04:53:40.010Z,77.24
2023-02-06T04:54:41.614Z,76.89
2023-02-06T04:55:43.298Z,77.21
2023-02-06T04:56:45.393Z,77.40
2023-02-06T04:57:47.712Z,77.51
2023-02-06T04:58:49.605Z,77.59
2023-02-06T04:59:51.204Z,77.77
2023-02-06T05:00:52.797Z,77.94
2023-02-06T05:01:54.453Z,78.09
2023-02-06T05:02:56.104Z,78.46
2023-02-06T05:03:59.066Z,78.84
2023-02-06T05:05:00.666Z,78.59
2023-02-06T05:06:02.939Z,78.63
2023-02-06T05:07:05.657Z,78.63
2023-02-06T05:08:07.313Z,78.77
2023-02-06T05:09:11.304Z,78.61
2023-02-06T05:10:12.907Z,78.50
2023-02-06T05:11:14.580Z,78.21
2023-02-06T05:12:16.175Z,77.96
2023-02-06T05:13:21.340Z,77.80
2023-02-06T05:14:23.485Z,78.06
2023-02-06T05:15:25.162Z,77.93
2023-02-06T05:16:26.905Z,77.75
2023-02-06T05:17:28.636Z,77.38
2023-02-06T05:18:30.279Z,77.35
2023-02-06T05:19:31.895Z,77.38
2023-02-06T05:20:33.710Z,77.20
2023-02-06T05:21:35.328Z,77.30
2023-02-06T05:22:37.025Z,77.41
2023-02-06T05:23:38.628Z,77.41
2023-02-06T05:24:40.339Z,76.87
2023-02-06T05:25:42.359Z,76.87
2023-02-06T05:26:45.081Z,77.02
2023-02-06T05:27:46.734Z,77.27
2023-02-06T05:28:48.359Z,77.72
2023-02-06T05:29:50.140Z,77.71
2023-02-06T05:30:51.872Z,77.83
2023-02-06T05:31:53.606Z,77.83
2023-02-06T05:32:55.269Z,77.71
2023-02-06T05:33:56.906Z,77.92
2023-02-06T05:34:58.606Z,77.87
2023-02-06T05:36:06.740Z,77.92
2023-02-06T05:37:08.360Z,77.42
2023-02-06T05:38:09.942Z,77.06
2023-02-06T05:39:11.566Z,77.22
2023-02-06T05:40:13.169Z,76.57
2023-02-06T05:41:15.452Z,76.12
2023-02-06T05:42:17.056Z,75.80
2023-02-06T05:43:18.676Z,75.90
2023-02-06T05:44:20.281Z,75.43
2023-02-06T05:45:21.884Z,74.94
2023-02-06T05:46:23.566Z,75.27
2023-02-06T05:47:26.070Z,74.98
2023-02-06T05:48:30.582Z,75.36
2023-02-06T05:49:32.204Z,74.58
2023-02-06T05:50:33.843Z,74.32
2023-02-06T05:51:35.459Z,74.02
2023-02-06T05:52:37.054Z,74.10
2023-02-06T05:53:38.748Z,73.70
2023-02-06T05:54:40.437Z,73.79
2023-02-06T05:55:42.052Z,73.57
2023-02-06T05:56:43.870Z,73.89
2023-02-06T05:57:45.539Z,74.07
2023-02-06T05:58:47.273Z,74.02
2023-02-06T05:59:48.887Z,74.07
2023-02-06T06:00:50.467Z,74.34
2023-02-06T06:01:52.116Z,74.33
2023-02-06T06:02:53.781Z,74.57
2023-02-06T06:03:55.904Z,74.62
2023-02-06T06:04:57.695Z,74.27
2023-02-06T06:06:00.559Z,74.44
2023-02-06T06:07:02.386Z,74.58
2023-02-06T06:08:04.202Z,74.51
2023-02-06T06:09:05.889Z,74.26
2023-02-06T06:10:08.126Z,74.68
2023-02-06T06:11:09.740Z,74.47
2023-02-06T06:12:11.334Z,74.64
2023-02-06T06:13:12.991Z,74.36
2023-02-06T06:14:14.673Z,74.21
2023-02-06T06:15:16.524Z,74.32
2023-02-06T06:16:18.151Z,74.15
2023-02-06T06:17:19.820Z,74.43
2023-02-06T06:18:21.709Z,74.21
2023-02-06T06:19:23.313Z,74.43
2023-02-06T06:20:25.003Z,74.47
2023-02-06T06:21:26.654Z,74.65
2023-02-06T06:22:28.405Z,74.20
2023-02-06T06:23:30.074Z,74.22
2023-02-06T06:24:31.692Z,74.13
2023-02-06T06:25:33.584Z,74.17
2023-02-06T06:26:35.366Z,74.13
2023-02-06T06:27:36.958Z,74.18
2023-02-06T06:28:38.962Z,73.91
2023-02-06T06:29:40.607Z,74.12
2023-02-06T06:30:42.275Z,74.62
2023-02-06T06:31:44.285Z,74.38
2023-02-06T06:32:45.905Z,74.38
2023-02-06T06:33:47.691Z,74.28
2023-02-06T06:34:49.330Z,73.82
2023-02-06T06:35:50.930Z,73.33
2023-02-06T06:36:52.559Z,73.28
2023-02-06T06:37:54.261Z,73.30
2023-02-06T06:38:55.951Z,72.80
2023-02-06T06:39:57.628Z,73.40
2023-02-06T06:40:59.239Z,73.33
2023-02-06T06:42:00.871Z,74.03
2023-02-06T06:43:02.577Z,73.95
2023-02-06T06:44:04.350Z,73.65
2023-02-06T06:45:06.552Z,74.04
2023-02-06T06:46:08.597Z,74.16
2023-02-06T06:47:10.877Z,74.42
2023-02-06T06:48:12.525Z,74.66
2023-02-06T06:49:14.149Z,74.11
2023-02-06T06:50:15.956Z,74.48
2023-02-06T06:51:17.689Z,74.73
2023-02-06T06:52:24.922Z,74.32
2023-02-06T06:53:27.079Z,73.60
2023-02-06T06:54:28.728Z,73.38
2023-02-06T06:55:30.425Z,73.83
2023-02-06T06:56:32.056Z,73.65
2023-02-06T06:57:33.718Z,73.82
2023-02-06T06:58:35.372Z,74.00
2023-02-06T06:59:37.176Z,74.49
2023-02-06T07:00:39.929Z,74.99
2023-02-06T07:01:41.640Z,75.40
2023-02-06T07:02:43.375Z,75.90
2023-02-06T07:03:45.476Z,75.65
2023-02-06T07:04:47.226Z,76.73
2023-02-06T07:05:48.836Z,76.75
2023-02-06T07:06:50.427Z,76.58
2023-02-06T07:07:52.063Z,76.60
2023-02-06T07:08:53.721Z,76.22
2023-02-06T07:09:55.332Z,75.43
2023-02-06T07:10:57.768Z,75.21
2023-02-06T07:11:59.445Z,75.64
2023-02-06T07:13:01.101Z,74.97
2023-02-06T07:14:02.849Z,74.53
2023-02-06T07:15:05.059Z,74.65
2023-02-06T07:16:06.822Z,74.35
2023-02-06T07:17:08.493Z,74.33
2023-02-06T07:18:11.713Z,74.27
2023-02-06T07:19:13.674Z,74.28
2023-02-06T07:20:15.810Z,74.49
2023-02-06T07:21:19.961Z,74.49
2023-02-06T07:22:21.807Z,74.37
2023-02-06T07:23:23.508Z,74.33
2023-02-06T07:24:25.136Z,73.83
2023-02-06T07:25:26.803Z,73.73
2023-02-06T07:26:28.396Z,73.17
2023-02-06T07:27:30.062Z,73.86
2023-02-06T07:28:32.081Z,73.80
2023-02-06T07:29:33.708Z,73.79
2023-02-06T07:30:35.445Z,73.87
2023-02-06T07:31:37.101Z,73.49
2023-02-06T07:32:38.900Z,73.27
2023-02-06T07:33:40.560Z,73.43
2023-02-06T07:34:42.225Z,72.92
2023-02-06T07:35:44.073Z,72.43
2023-02-06T07:36:45.671Z,72.52
2023-02-06T07:37:47.346Z,72.54
2023-02-06T07:38:49.095Z,72.08
2023-02-06T07:39:50.763Z,72.45
2023-02-06T07:40:52.373Z,72.83
2023-02-06T07:41:53.953Z,72.79
2023-02-06T07:42:55.612Z,72.35
2023-02-06T07:43:57.211Z,72.68
2023-02-06T07:44:58.897Z,72.48
2023-02-06T07:46:01.490Z,72.91
2023-02-06T07:47:03.405Z,72.40
2023-02-06T07:48:05.413Z,73.02
2023-02-06T07:49:07.008Z,72.56
2023-02-06T07:50:09.064Z,73.03
2023-02-06T07:51:10.828Z,72.76
2023-02-06T07:52:12.429Z,72.05
2023-02-06T07:53:14.092Z,71.71
2023-02-06T07:54:15.698Z,71.92
2023-02-06T07:55:17.447Z,70.94
2023-02-06T07:56:20.056Z,71.13
2023-02-06T07:57:21.814Z,72.03
2023-02-06T07:58:23.460Z,71.39
2023-02-06T07:59:25.079Z,70.72
2023-02-06T08:00:26.788Z,71.17
2023-02-06T08:01:28.553Z,72.15
2023-02-06T08:02:30.192Z,72.25
2023-02-06T08:03:31.923Z,71.87
2023-02-06T08:04:35.715Z,72.79
2023-02-06T08:05:40.141Z,72.65
2023-02-06T08:06:42.824Z,72.22
2023-02-06T08:07:44.422Z,71.82
2023-02-06T08:08:46.113Z,71.61
2023-02-06T08:09:47.846Z,71.39
2023-02-06T08:10:49.645Z,70.72
2023-02-06T08:11:51.722Z,70.28
2023-02-06T08:12:53.394Z,70.72
2023-02-06T08:13:54.997Z,70.72
2023-02-06T08:14:56.620Z,71.13
2023-02-06T08:15:58.236Z,70.71
2023-02-06T08:17:00.106Z,70.28
2023-02-06T08:18:01.710Z,69.33
2023-02-06T08:19:03.306Z,68.77
2023-02-06T08:20:05.242Z,69.39
2023-02-06T08:21:10.072Z,69.34
2023-02-06T08:22:11.760Z,69.18
2023-02-06T08:23:13.357Z,67.46
2023-02-06T08:24:14.944Z,68.08
2023-02-06T08:25:16.532Z,69.04
2023-02-06T08:26:18.474Z,67.99
2023-02-06T08:27:20.132Z,67.28
2023-02-06T08:28:21.845Z,68.20
2023-02-06T08:29:24.421Z,68.01
2023-02-06T08:30:26.221Z,68.40
2023-02-06T08:31:29.759Z,68.40
2023-02-06T08:32:34.959Z,68.27
2023-02-06T08:33:36.753Z,67.71
2023-02-06T08:34:41.584Z,67.66
2023-02-06T08:35:43.255Z,67.88
2023-02-06T08:36:44.986Z,66.45
2023-02-06T08:37:46.595Z,66.35
2023-02-06T08:38:48.564Z,67.03
2023-02-06T08:39:50.202Z,67.66
2023-02-06T08:40:51.838Z,68.90
2023-02-06T08:41:53.525Z,68.63
2023-02-06T08:42:55.139Z,68.15
2023-02-06T08:43:59.528Z,67.57
2023-02-06T08:45:01.204Z,66.73
2023-02-06T08:46:02.925Z,66.73
2023-02-06T08:47:10.112Z,66.94
2023-02-06T08:48:12.125Z,64.52
2023-02-06T08:49:18.535Z,64.07
2023-02-06T08:50:21.263Z,65.75
2023-02-06T08:51:22.933Z,67.47
2023-02-06T08:52:24.606Z,66.98
2023-02-06T08:53:26.205Z,66.36
2023-02-06T08:54:27.860Z,65.83
2023-02-06T08:55:30.664Z,66.46
2023-02-06T08:56:32.987Z,66.63
2023-02-06T08:57:34.584Z,64.89
2023-02-06T08:58:36.533Z,65.86
2023-02-06T08:59:38.392Z,66.07
2023-02-06T09:00:40.004Z,66.24
2023-02-06T09:01:42.137Z,65.63
2023-02-06T09:02:43.956Z,65.22
2023-02-06T09:03:45.815Z,65.36
2023-02-06T09:04:47.442Z,64.94
2023-02-06T09:05:54.055Z,64.61
2023-02-06T09:06:55.812Z,64.77
2023-02-06T09:07:57.786Z,64.72
2023-02-06T09:08:59.373Z,64.21
2023-02-06T09:10:01.005Z,63.81
2023-02-06T09:11:22.173Z,63.75
2023-02-06T09:12:23.828Z,63.45
2023-02-06T09:13:25.812Z,63.53
2023-02-06T09:14:27.437Z,63.34
2023-02-06T09:15:29.124Z,62.89
2023-02-06T09:16:33.311Z,62.44
2023-02-06T09:17:35.513Z,61.89
2023-02-06T09:18:37.213Z,62.30
2023-02-06T09:19:38.869Z,62.37
2023-02-06T09:20:40.490Z,62.99
2023-02-06T09:21:42.212Z,62.66
2023-02-06T09:22:44.672Z,62.51
2023-02-06T09:23:47.963Z,63.20
2023-02-06T09:24:49.600Z,63.38
2023-02-06T09:25:51.200Z,63.93
2023-02-06T09:26:59.774Z,63.49
2023-02-06T09:28:02.108Z,63.59
2023-02-06T09:29:07.732Z,62.99
2023-02-06T09:30:10.022Z,62.90
2023-02-06T09:31:11.892Z,62.93
2023-02-06T09:32:13.647Z,62.69
2023-02-06T09:33:15.296Z,62.53
2023-02-06T09:34:16.909Z,62.83
2023-02-06T09:35:18.518Z,64.03
2023-02-06T09:36:21.148Z,64.28
2023-02-06T09:37:23.568Z,63.64
2023-02-06T09:38:25.326Z,63.79
2023-02-06T09:39:26.958Z,64.39
2023-02-06T09:40:29.666Z,63.42
2023-02-06T09:41:40.849Z,63.10
2023-02-06T09:42:42.548Z,62.81
2023-02-06T09:43:58.828Z,60.65
2023-02-06T09:45:07.458Z,60.72
2023-02-06T09:46:09.467Z,60.93
2023-02-06T09:47:26.563Z,61.77
2023-02-06T09:48:30.800Z,62.39
2023-02-06T09:49:43.986Z,62.14
2023-02-06T09:51:04.237Z,62.79
2023-02-06T09:52:12.730Z,62.41
2023-02-06T09:53:17.103Z,62.38
2023-02-06T09:54:35.842Z,62.30
2023-02-06T09:55:51.785Z,62.75
2023-02-06T09:56:57.597Z,62.34
2023-02-06T09:58:06.823Z,61.65
2023-02-06T09:59:17.550Z,60.78
2023-02-06T10:00:37.297Z,60.33
2023-02-06T10:01:53.223Z,60.52
2023-02-06T10:03:26.905Z,59.67
2023-02-06T10:04:34.489Z,59.65
2023-02-06T10:05:57.982Z,59.68
2023-02-06T10:07:28.522Z,60.86
2023-02-06T10:08:38.932Z,61.92
2023-02-06T10:09:51.152Z,62.51
2023-02-06T10:10:56.668Z,62.77
2023-02-06T10:12:04.828Z,61.31
2023-02-06T10:13:06.421Z,61.25
2023-02-06T10:14:24.853Z,60.18
2023-02-06T10:15:33.075Z,59.88
2023-02-06T10:16:47.980Z,59.68
2023-02-06T10:17:53.604Z,59.59
2023-02-06T10:18:57.029Z,59.66
2023-02-06T10:20:03.514Z,59.05
2023-02-06T10:21:13.699Z,58.21
2023-02-06T10:22:28.394Z,59.70
2023-02-06T10:23:47.438Z,60.68
2023-02-06T10:25:01.552Z,60.55
2023-02-06T10:26:07.867Z,59.81
2023-02-06T10:27:11.823Z,59.27
2023-02-06T10:28:23.503Z,59.70
2023-02-06T10:29:30.365Z,58.42
2023-02-06T10:31:02.764Z,58.16
2023-02-06T10:32:12.395Z,58.16
2023-02-06T10:33:32.729Z,57.51
2023-02-06T10:34:54.404Z,58.43
2023-02-06T10:36:05.127Z,59.03
2023-02-06T10:37:09.768Z,58.71
2023-02-06T10:38:23.169Z,58.33
2023-02-06T10:39:46.125Z,59.08
2023-02-06T10:41:13.207Z,59.49
2023-02-06T10:42:42.589Z,58.92
2023-02-06T10:43:56.172Z,57.15
2023-02-06T10:45:21.840Z,57.52
2023-02-06T10:46:26.584Z,57.44
2023-02-06T10:47:39.864Z,57.15
2023-02-06T10:48:46.664Z,57.53
2023-02-06T10:49:52.609Z,57.15
2023-02-06T10:51:00.895Z,56.70
2023-02-06T10:52:07.882Z,57.08
2023-02-06T10:53:36.781Z,56.91
2023-02-06T10:54:40.177Z,56.62
2023-02-06T10:55:47.523Z,56.05
2023-02-06T10:56:52.122Z,55.41
2023-02-06T10:58:13.556Z,56.48
2023-02-06T10:59:23.797Z,56.24
2023-02-06T11:00:26.442Z,56.18
2023-02-06T11:01:32.029Z,56.74
2023-02-06T11:03:06.295Z,55.58
2023-02-06T11:04:34.856Z,55.93
2023-02-06T11:05:37.033Z,55.96
2023-02-06T11:06:40.194Z,56.21
2023-02-06T11:07:43.772Z,57.16
2023-02-06T11:08:45.827Z,56.68
2023-02-06T11:09:47.482Z,56.26
2023-02-06T11:10:49.369Z,56.27
2023-02-06T11:11:52.028Z,55.74
2023-02-06T11:13:05.030Z,56.23
2023-02-06T11:14:11.191Z,55.88
2023-02-06T11:15:25.826Z,55.29
2023-02-06T11:16:28.482Z,55.25
2023-02-06T11:17:31.743Z,56.15
2023-02-06T11:18:39.241Z,56.52
2023-02-06T11:19:42.517Z,57.23
2023-02-06T11:20:44.454Z,56.12
2023-02-06T11:21:48.780Z,55.00
2023-02-06T11:22:53.517Z,55.22
2023-02-06T11:24:14.480Z,56.05
2023-02-06T11:25:27.861Z,55.54
2023-02-06T11:26:29.467Z,54.64
2023-02-06T11:27:31.587Z,54.36
2023-02-06T11:28:34.632Z,55.36
2023-02-06T11:29:44.407Z,55.13
2023-02-06T11:31:01.504Z,55.45
2023-02-06T11:32:05.092Z,55.47
2023-02-06T11:33:40.989Z,54.00
2023-02-06T11:34:54.890Z,54.14
2023-02-06T11:36:01.289Z,54.80
2023-02-06T11:37:05.184Z,55.65
2023-02-06T11:38:19.792Z,55.68
2023-02-06T11:39:27.767Z,54.88
2023-02-06T11:40:29.618Z,54.93
2023-02-06T11:41:31.424Z,54.85
2023-02-06T11:42:34.970Z,54.73
2023-02-06T11:43:42.179Z,53.99
2023-02-06T11:44:44.466Z,53.41
2023-02-06T11:45:47.436Z,52.95
2023-02-06T11:46:49.133Z,53.46
2023-02-06T11:47:50.798Z,54.80
2023-02-06T11:48:55.403Z,55.10
2023-02-06T11:50:15.301Z,54.42
2023-02-06T11:51:17.044Z,53.57
2023-02-06T11:52:32.490Z,52.34
2023-02-06T11:53:34.572Z,54.52
2023-02-06T11:54:36.406Z,54.36
2023-02-06T11:55:39.596Z,53.58
2023-02-06T11:56:41.398Z,52.74
2023-02-06T11:57:43.014Z,53.61
2023-02-06T11:58:44.864Z,53.29
2023-02-06T11:59:57.104Z,54.04
2023-02-06T12:01:01.190Z,52.95
2023-02-06T12:02:06.968Z,52.85
2023-02-06T12:03:30.778Z,53.07
2023-02-06T12:04:38.313Z,52.68
2023-02-06T12:05:40.938Z,52.96
2023-02-06T12:06:42.576Z,53.04
2023-02-06T12:08:00.353Z,52.81
2023-02-06T12:09:09.565Z,52.40
2023-02-06T12:10:18.085Z,52.23
2023-02-06T12:11:38.534Z,52.11
2023-02-06T12:12:42.153Z,52.00
2023-02-06T12:13:46.680Z,51.83
2023-02-06T12:15:43.551Z,52.10
2023-02-06T12:16:41.050Z,51.33
2023-02-06T12:17:48.409Z,51.40
2023-02-06T12:18:53.009Z,51.15
2023-02-06T12:20:28.917Z,51.39
2023-02-06T12:21:43.024Z,50.59
2023-02-06T12:22:47.591Z,50.36
2023-02-06T12:23:53.319Z,50.79
2023-02-06T12:24:55.747Z,50.57
2023-02-06T12:25:59.579Z,51.33
2023-02-06T12:27:04.336Z,51.18
2023-02-06T12:28:16.281Z,50.84
2023-02-06T12:29:24.118Z,51.34
2023-02-06T12:30:43.829Z,51.32
2023-02-06T12:31:53.958Z,50.84
2023-02-06T12:33:03.687Z,51.19
2023-02-06T12:34:43.842Z,51.51
2023-02-06T12:35:49.631Z,51.01
2023-02-06T12:37:00.344Z,51.95
2023-02-06T12:38:08.012Z,52.03
2023-02-06T12:39:17.476Z,51.69
2023-02-06T12:40:43.712Z,52.95
2023-02-06T12:41:45.392Z,52.68
2023-02-06T12:43:00.108Z,52.47
2023-02-06T12:44:25.250Z,52.46
2023-02-06T12:45:31.732Z,52.47
2023-02-06T12:46:33.436Z,52.69
2023-02-06T12:47:39.405Z,52.94
2023-02-06T12:48:51.061Z,53.52
2023-02-06T12:50:23.571Z,53.88
2023-02-06T12:51:36.906Z,53.46
2023-02-06T12:52:50.426Z,53.77
2023-02-06T12:53:58.237Z,53.73
2023-02-06T12:55:39.756Z,53.77
2023-02-06T12:56:49.392Z,53.84
2023-02-06T12:57:51.027Z,54.03
2023-02-06T12:59:10.656Z,53.84
2023-02-06T13:00:34.362Z,53.00
2023-02-06T13:02:01.212Z,52.72
2023-02-06T13:03:14.810Z,52.68
2023-02-06T13:04:18.646Z,53.03
2023-02-06T13:05:36.569Z,53.60
2023-02-06T13:07:03.010Z,53.16
2023-02-06T13:08:16.119Z,53.15
2023-02-06T13:09:39.863Z,52.79
2023-02-06T13:10:42.630Z,53.02
2023-02-06T13:11:44.260Z,53.00
2023-02-06T13:12:53.558Z,53.43
2023-02-06T13:14:24.501Z,53.64
2023-02-06T13:15:33.400Z,54.39
2023-02-06T13:16:57.078Z,54.66
2023-02-06T13:17:58.866Z,54.03
2023-02-06T13:19:03.539Z,54.73
2023-02-06T13:20:09.174Z,55.62
2023-02-06T13:21:14.883Z,54.79
2023-02-06T13:22:17.504Z,54.35
2023-02-06T13:23:21.515Z,54.12
2023-02-06T13:24:23.235Z,53.46
2023-02-06T13:25:30.732Z,54.09
2023-02-06T13:26:53.382Z,53.71
2023-02-06T13:27:59.413Z,53.68
2023-02-06T13:29:01.134Z,54.15
2023-02-06T13:30:31.734Z,54.10
2023-02-06T13:31:34.583Z,54.41
2023-02-06T13:32:42.195Z,54.60
2023-02-06T13:33:58.284Z,55.13
2023-02-06T13:35:05.063Z,54.41
2023-02-06T13:36:15.946Z,54.39
2023-02-06T13:37:21.383Z,54.66
2023-02-06T13:38:22.960Z,54.22
2023-02-06T13:39:30.187Z,53.87
2023-02-06T13:40:32.354Z,53.73
2023-02-06T13:41:37.247Z,54.08
2023-02-06T13:42:41.571Z,54.00
2023-02-06T13:43:49.652Z,54.96
2023-02-06T13:44:51.275Z,54.50
2023-02-06T13:45:58.607Z,55.15
2023-02-06T13:47:08.162Z,55.10
2023-02-06T13:48:31.574Z,55.37
2023-02-06T13:49:33.200Z,56.60
2023-02-06T13:50:57.856Z,56.50
2023-02-06T13:52:07.239Z,56.71
2023-02-06T13:53:11.515Z,55.94
2023-02-06T13:54:37.642Z,55.94
2023-02-06T13:55:57.678Z,56.21
2023-02-06T13:57:23.970Z,55.74
2023-02-06T13:58:40.687Z,55.52
2023-02-06T13:59:53.621Z,55.56
2023-02-06T14:00:55.269Z,55.75
2023-02-06T14:01:57.080Z,55.69
2023-02-06T14:03:13.424Z,55.71
2023-02-06T14:04:20.493Z,55.75